Flight Track Log - Related Links

Times and Time Zones

All times are in EDT time to prevent confusion due to time zone crossing. See the UPS1122 flight status page for this flight to view local times or setup timezone preferences in your user account.

Time Position Orientation Groundspeed Altitude Reporting Facility
EDT Latitude Longitude Course Direction KTS MPH feet Rate Location/Type
Thu 06:46:52 AM 42.0110 -72.8000 310° West 265 305 4,900  Level FlightAware ADS-B
Thu 06:47:13 AM 42.0280 -72.8270 310° West 279 321 6,200 4,143 Climbing FlightAware ADS-B
Thu 06:47:34 AM 42.0480 -72.8540 315° West 287 330 7,800 3,789 Climbing FlightAware ADS-B
Thu 06:47:51 AM 42.0620 -72.8750 312° West 292 336 8,600 2,595 Climbing FlightAware ADS-B
Thu 06:48:11 AM 42.0830 -72.9040 314° West 304 350 9,400 1,650 Climbing FlightAware ADS-B
Thu 06:48:31 AM 42.1030 -72.9300 316° Northwest 304 350 9,700 450 Climbing FlightAware ADS-B
Thu 06:48:51 AM 42.1230 -72.9570 315° West 342 394 9,700 -146 Level FlightAware ADS-B
Thu 06:49:12 AM 42.1490 -72.9920 315° West 360 414 9,600  Descending FlightAware ADS-B
Thu 06:49:36 AM 42.1770 -73.0310 314° West 362 417 9,700  Climbing FlightAware ADS-B
Thu 06:49:47 AM 42.1910 -73.0490 316° Northwest 362 417 9,600 -182 Descending FlightAware ADS-B
Thu 06:50:09 AM 42.2130 -73.0850 310° West 362 417 9,600  Level FlightAware ADS-B
Thu 06:50:24 AM 42.2280 -73.1130 306° West 361 415 9,600  Level FlightAware ADS-B
Thu 06:50:45 AM 42.2480 -73.1550 303° West 359 413 9,600  Level FlightAware ADS-B
Thu 06:51:04 AM 42.2650 -73.1890 304° West 335 386 9,600 140 Level FlightAware ADS-B
Thu 06:51:28 AM 42.2840 -73.2290 303° West 310 357 9,700  Climbing FlightAware ADS-B
Thu 06:51:48 AM 42.2990 -73.2610 302° West 303 349 9,600 -146 Descending FlightAware ADS-B
Thu 06:52:09 AM 42.3160 -73.2960 303° West 302 348 9,600 -95 Level FlightAware ADS-B
Thu 06:52:51 AM 42.3430 -73.3540 302° West 299 344 9,500 -1,200 Descending FlightAware ADS-B
Thu 06:53:14 AM 42.3630 -73.3960 303° West 292 336 8,300 -2,233 Descending FlightAware ADS-B
Thu 06:53:34 AM 42.3780 -73.4250 305° West 287 330 7,900 -1,355 Descending FlightAware ADS-B
Thu 06:53:45 AM 42.3870 -73.4430 304° West 283 326 7,600 -1,059 Descending FlightAware ADS-B
Thu 06:54:42 AM 42.4244 -73.5200 304° West 281 323 6,700 -1,276 Descending Boston Center
Thu 06:55:52 AM 42.4714 -73.6222 302° West 273 314 4,900 -1,512 Descending Boston Center
Thu 06:56:45 AM 42.5122 -73.6992 306° West 274 315 3,600 -1,168 Descending Boston Center
Thu 06:57:45 AM 42.5553 -73.7733 308° West 251 289 2,700 -750 Descending Boston Center
Thu 06:58:45 AM 42.6089 -73.8025 338° Northwest 200 230 2,100 -293 Descending Boston Center
Thu 06:59:48 AM 42.6569 -73.8008 North 152 175 2,100 -446 Level Boston Center
Thu 07:00:46 AM 42.6922 -73.8072 352° North 124 143 1,200 -750 Descending Boston Center
Thu 07:01:48 AM 42.7256 -73.8053 North 113 130 600 -581 Descending Boston Center
Thu 07:03:00 AM 42.7333 -73.8000 North  Level FlightAware Approximate
Thu 07:10:00 AM 42.7491 -73.8020 North  Level Estimated
Thu 07:11:00 AM 42.7491 -73.8020 North  Level Estimated

Login

Don't have an account? Register now (free) for customized features, flight alerts, and more!